Time;durP1;ratioP1;P1;durP2;ratioP2;P2;SDS_P1;SDS_P2;PMS_P1;PMS_P2;Temp;Humidity;BMP_temperature;BMP_pressure;BME280_temperature;BME280_humidity;BME280_pressure;Samples;Min_cycle;Max_cycle;Signal;HPM_P1;HPM_P2
2023/04/01 00:00:30;;;;;;;12.68;3.15;;;;;;;10.66;100.00;99032.34;6222383;23;20069;-76
2023/04/01 00:02:56;;;;;;;9.25;2.63;;;;;;;10.86;100.00;99021.50;6221655;23;20193;-75
2023/04/01 00:05:24;;;;;;;8.38;2.53;;;;;;;10.80;100.00;99026.56;6221999;23;20016;-75
2023/04/01 00:07:50;;;;;;;10.73;3.15;;;;;;;10.71;100.00;99027.41;6195361;23;20930;-76
2023/04/01 00:10:16;;;;;;;7.25;2.33;;;;;;;10.66;100.00;99030.50;6221300;23;20020;-76
2023/04/01 00:12:42;;;;;;;7.07;2.90;;;;;;;10.63;100.00;99028.13;6221975;23;20087;-75
2023/04/01 00:15:09;;;;;;;6.90;2.50;;;;;;;10.59;100.00;99032.91;6194256;23;20008;-74
2023/04/01 00:17:35;;;;;;;6.47;2.75;;;;;;;10.52;100.00;99021.13;6169974;23;20046;-75
2023/04/01 00:20:02;;;;;;;9.93;2.85;;;;;;;10.55;100.00;99026.19;6195726;23;20335;-76
2023/04/01 00:22:28;;;;;;;6.60;2.80;;;;;;;10.76;100.00;99039.34;6197148;23;20016;-76
2023/04/01 00:24:54;;;;;;;6.97;3.25;;;;;;;10.73;100.00;99039.59;6222474;23;20062;-76
2023/04/01 00:27:20;;;;;;;11.68;3.65;;;;;;;10.59;100.00;99032.03;6197119;23;20235;-75
2023/04/01 00:29:47;;;;;;;7.68;2.92;;;;;;;10.62;100.00;99032.63;6195636;23;20098;-75
2023/04/01 00:32:14;;;;;;;8.95;3.38;;;;;;;10.61;100.00;99032.75;6195764;23;20007;-76
2023/04/01 00:34:40;;;;;;;4.25;3.72;;;;;;;10.70;100.00;99036.41;6171376;23;20012;-76
2023/04/01 00:37:08;;;;;;;6.20;3.75;;;;;;;10.63;100.00;99038.78;6196456;23;20426;-76
2023/04/01 00:39:34;;;;;;;5.43;4.18;;;;;;;10.60;100.00;99034.59;6168940;23;20107;-75
2023/04/01 00:42:04;;;;;;;6.20;4.05;;;;;;;10.61;100.00;99030.94;6170914;23;20016;-75
2023/04/01 00:44:32;;;;;;;9.00;4.28;;;;;;;10.69;100.00;99037.38;6195678;23;20012;-77
2023/04/01 00:46:58;;;;;;;5.40;3.20;;;;;;;10.56;100.00;99040.34;6195580;23;20016;-76
2023/04/01 00:49:33;;;;;;;6.40;3.70;;;;;;;10.73;100.00;99039.59;6170145;23;20458;-76
2023/04/01 00:52:01;;;;;;;6.80;3.30;;;;;;;10.68;100.00;99036.53;6164515;23;20024;-76
2023/04/01 00:54:29;;;;;;;10.52;3.90;;;;;;;10.61;100.00;99038.94;6165447;23;20048;-75
2023/04/01 00:57:01;;;;;;;7.20;3.10;;;;;;;10.52;100.00;99042.44;6140769;23;20020;-75
2023/04/01 00:59:31;;;;;;;13.52;4.40;;;;;;;10.57;100.00;99029.53;6192672;23;20012;-76
2023/04/01 01:01:57;;;;;;;11.40;3.72;;;;;;;10.67;100.00;99042.84;6165663;23;20012;-76
2023/04/01 01:04:25;;;;;;;10.07;3.70;;;;;;;10.63;100.00;99042.28;6165465;23;20027;-75
2023/04/01 01:06:58;;;;;;;6.85;3.90;;;;;;;10.66;100.00;99035.84;6191949;23;20079;-76
2023/04/01 01:09:56;;;;;;;15.93;4.95;;;;;;;10.72;100.00;99037.09;6165166;23;20095;-76
2023/04/01 01:12:44;;;;;;;21.77;5.78;;;;;;;10.65;100.00;99047.50;6191466;23;20070;-76
2023/04/01 01:15:34;;;;;;;12.82;4.93;;;;;;;10.79;100.00;99054.19;6165491;23;20034;-75
2023/04/01 01:18:05;;;;;;;11.20;5.05;;;;;;;10.68;100.00;99057.00;6189446;23;20305;-75
2023/04/01 01:20:40;;;;;;;11.30;4.87;;;;;;;10.78;100.00;99055.19;6185528;23;20143;-75
2023/04/01 01:23:30;;;;;;;11.98;5.07;;;;;;;10.76;100.00;99057.16;6158236;23;20082;-75
2023/04/01 01:26:26;;;;;;;11.30;5.10;;;;;;;10.73;100.00;99054.75;6159517;23;20343;-76
2023/04/01 01:29:18;;;;;;;12.23;5.68;;;;;;;10.79;100.00;99055.06;6160186;23;20581;-76
2023/04/01 01:32:11;;;;;;;12.25;5.97;;;;;;;10.86;100.00;99061.50;6187359;23;20018;-76
2023/04/01 01:35:14;;;;;;;13.45;5.85;;;;;;;10.88;100.00;99053.34;6162293;23;20650;-76
2023/04/01 01:37:45;;;;;;;13.23;6.15;;;;;;;10.75;100.00;99052.81;6135687;23;20023;-75
2023/04/01 01:40:13;;;;;;;14.33;6.10;;;;;;;10.85;100.00;99050.97;6137207;23;20020;-76
2023/04/01 01:42:46;;;;;;;10.68;4.82;;;;;;;10.87;100.00;99057.00;6155756;23;20099;-75
2023/04/01 01:45:19;;;;;;;12.38;6.32;;;;;;;10.90;100.00;99054.06;6131493;23;20020;-76
2023/04/01 01:47:47;;;;;;;15.05;6.47;;;;;;;10.75;100.00;99056.31;6154861;23;20017;-76
2023/04/01 01:50:13;;;;;;;13.02;6.60;;;;;;;10.81;100.00;99061.06;6156954;23;20761;-76
2023/04/01 01:52:39;;;;;;;13.75;6.03;;;;;;;10.84;100.00;99060.81;6132001;23;20013;-76
2023/04/01 01:55:27;;;;;;;14.48;6.63;;;;;;;10.93;100.00;99060.91;6159233;23;20012;-76
2023/04/01 01:57:54;;;;;;;16.50;7.15;;;;;;;10.96;100.00;99056.13;6158279;23;20314;-76
2023/04/01 02:00:20;;;;;;;15.95;7.07;;;;;;;10.83;100.00;99058.25;6158797;23;20332;-76
2023/04/01 02:02:48;;;;;;;13.75;6.22;;;;;;;10.73;100.00;99068.09;6158311;23;20580;-76
2023/04/01 02:05:30;;;;;;;19.77;7.45;;;;;;;10.85;100.00;99064.31;6159438;23;20005;-77
2023/04/01 02:08:13;;;;;;;15.32;7.95;;;;;;;10.77;100.00;99066.84;6159121;23;20057;-76
2023/04/01 02:10:43;;;;;;;15.88;7.38;;;;;;;10.81;100.00;99062.91;6135329;23;20021;-76
2023/04/01 02:13:19;;;;;;;18.70;8.02;;;;;;;10.85;100.00;99072.31;6135459;23;20112;-75
2023/04/01 02:15:49;;;;;;;15.20;7.57;;;;;;;10.76;100.00;99067.81;6135438;23;20021;-76
2023/04/01 02:18:18;;;;;;;17.75;7.95;;;;;;;10.70;100.00;99081.72;6134729;23;20092;-76
2023/04/01 02:20:44;;;;;;;18.23;8.15;;;;;;;10.86;100.00;99081.97;6158474;23;20690;-76
2023/04/01 02:23:12;;;;;;;20.08;8.32;;;;;;;10.71;100.00;99083.41;6134165;23;20706;-76
2023/04/01 02:25:40;;;;;;;18.73;8.75;;;;;;;10.73;100.00;99076.94;6134697;23;20047;-75
2023/04/01 02:28:08;;;;;;;20.27;9.23;;;;;;;10.70;100.00;99087.06;6159374;23;20021;-75
2023/04/01 02:30:39;;;;;;;18.77;8.02;;;;;;;10.66;100.00;99089.16;6159159;23;20024;-76
2023/04/01 02:33:06;;;;;;;17.13;8.35;;;;;;;10.65;100.00;99092.81;6134302;23;20092;-75
2023/04/01 02:35:35;;;;;;;18.98;8.30;;;;;;;10.72;100.00;99101.06;6158481;23;20046;-76
2023/04/01 02:38:01;;;;;;;15.20;7.40;;;;;;;10.67;100.00;99106.00;6134342;23;20040;-75
2023/04/01 02:40:27;;;;;;;17.42;7.57;;;;;;;10.61;100.00;99102.06;6161907;23;20043;-75
2023/04/01 02:42:53;;;;;;;13.27;7.63;;;;;;;10.60;100.00;99097.72;6189409;23;20782;-76
2023/04/01 02:45:19;;;;;;;17.02;8.23;;;;;;;10.70;100.00;99111.06;6166619;23;20017;-76
2023/04/01 02:47:45;;;;;;;18.50;8.52;;;;;;;10.69;100.00;99104.84;6166030;23;20016;-76
2023/04/01 02:50:11;;;;;;;15.55;7.40;;;;;;;10.74;100.00;99101.75;6140181;23;20019;-74
2023/04/01 02:52:37;;;;;;;20.08;7.68;;;;;;;10.85;100.00;99097.16;6140988;23;20054;-76
2023/04/01 02:55:04;;;;;;;15.30;8.80;;;;;;;10.80;100.00;99103.88;6165808;23;20035;-75
2023/04/01 02:57:33;;;;;;;22.20;8.80;;;;;;;10.61;100.00;99102.91;6141301;23;20135;-76
2023/04/01 02:59:59;;;;;;;16.77;8.65;;;;;;;10.72;100.00;99111.75;6193343;23;20008;-76
2023/04/01 03:02:25;;;;;;;18.40;7.38;;;;;;;10.59;100.00;99106.66;6164516;23;20325;-76
2023/04/01 03:04:50;;;;;;;15.25;7.00;;;;;;;10.54;100.00;99112.44;6191232;23;20031;-74
2023/04/01 03:07:16;;;;;;;17.02;8.77;;;;;;;10.55;100.00;99119.47;6165405;23;20008;-74
2023/04/01 03:09:41;;;;;;;17.02;7.07;;;;;;;10.48;100.00;99117.47;6139696;23;20012;-74
2023/04/01 03:12:07;;;;;;;18.85;7.68;;;;;;;10.50;100.00;99128.84;6191832;23;20020;-76
2023/04/01 03:14:42;;;;;;;15.93;8.23;;;;;;;10.48;100.00;99122.81;6142308;23;20289;-74
2023/04/01 03:17:07;;;;;;;20.45;9.82;;;;;;;10.72;100.00;99122.41;6192231;23;20016;-75
2023/04/01 03:19:33;;;;;;;20.13;7.07;;;;;;;10.52;100.00;99119.72;6139810;23;20378;-75
2023/04/01 03:22:06;;;;;;;13.48;6.28;;;;;;;10.52;100.00;99122.38;6163205;23;20013;-76
2023/04/01 03:24:32;;;;;;;10.13;5.78;;;;;;;10.45;100.00;99118.63;6165323;23;20731;-74
2023/04/01 03:27:01;;;;;;;12.15;5.95;;;;;;;10.49;100.00;99122.69;6140253;23;20367;-75
2023/04/01 03:29:27;;;;;;;10.82;4.90;;;;;;;10.53;100.00;99125.91;6166785;23;20017;-75
2023/04/01 03:31:57;;;;;;;13.75;5.90;;;;;;;10.45;100.00;99131.94;6165961;23;20090;-75
2023/04/01 03:34:25;;;;;;;14.18;4.50;;;;;;;10.42;100.00;99123.38;6140487;23;20020;-76
2023/04/01 03:36:53;;;;;;;8.65;4.63;;;;;;;10.35;100.00;99128.41;6165647;23;20008;-76
2023/04/01 03:39:19;;;;;;;9.07;3.85;;;;;;;10.49;100.00;99130.69;6140560;23;20617;-76
2023/04/01 03:41:45;;;;;;;9.48;5.25;;;;;;;10.47;100.00;99124.63;6165904;23;20028;-75
2023/04/01 03:44:11;;;;;;;11.23;5.10;;;;;;;10.62;100.00;99128.56;6192042;23;20019;-75
2023/04/01 03:46:37;;;;;;;8.13;4.10;;;;;;;10.53;100.00;99120.56;6165230;23;20054;-76
2023/04/01 03:49:11;;;;;;;12.88;5.15;;;;;;;10.38;100.00;99126.28;6165869;23;20012;-75
2023/04/01 03:51:38;;;;;;;6.88;4.22;;;;;;;10.59;100.00;99126.19;6165002;23;20916;-75
2023/04/01 03:54:04;;;;;;;11.57;5.00;;;;;;;10.54;100.00;99128.44;6140160;23;20070;-74
2023/04/01 03:56:39;;;;;;;9.38;4.25;;;;;;;10.53;100.00;99132.06;6165494;23;20013;-76
2023/04/01 03:59:07;;;;;;;11.00;5.10;;;;;;;10.61;100.00;99126.06;6165227;23;20005;-75
2023/04/01 04:01:33;;;;;;;12.55;5.57;;;;;;;10.58;100.00;99132.50;6190490;23;20411;-75
2023/04/01 04:04:00;;;;;;;12.27;5.43;;;;;;;10.41;100.00;99129.69;6165982;23;20313;-76
2023/04/01 04:06:27;;;;;;;9.77;4.90;;;;;;;10.51;100.00;99139.38;6141674;23;20112;-76
2023/04/01 04:08:56;;;;;;;7.05;4.20;;;;;;;10.53;100.00;99142.72;6141388;23;20103;-76
2023/04/01 04:11:22;;;;;;;6.88;3.88;;;;;;;10.66;100.00;99138.97;6138542;23;20024;-75
2023/04/01 04:13:52;;;;;;;7.88;3.97;;;;;;;10.52;100.00;99132.22;6140577;23;20593;-75
2023/04/01 04:16:18;;;;;;;6.47;3.72;;;;;;;10.46;100.00;99144.28;6139979;23;20064;-76
2023/04/01 04:18:50;;;;;;;7.93;3.85;;;;;;;10.36;100.00;99143.41;6191367;23;20039;-76
2023/04/01 04:21:17;;;;;;;8.52;3.50;;;;;;;10.48;100.00;99142.31;6166404;23;20094;-74
2023/04/01 04:23:46;;;;;;;7.50;4.07;;;;;;;10.44;100.00;99143.59;6192261;23;20021;-75
2023/04/01 04:26:15;;;;;;;6.07;3.40;;;;;;;10.33;100.00;99149.84;6165739;23;20726;-75
2023/04/01 04:28:41;;;;;;;5.68;3.55;;;;;;;10.26;100.00;99150.53;6140590;23;20044;-75
2023/04/01 04:31:07;;;;;;;9.10;4.35;;;;;;;10.42;100.00;99153.53;6140031;23;20027;-75
2023/04/01 04:33:35;;;;;;;6.32;3.65;;;;;;;10.30;100.00;99149.31;6140571;23;20038;-75
2023/04/01 04:36:01;;;;;;;14.18;3.97;;;;;;;10.21;100.00;99147.41;6164889;23;20092;-76
2023/04/01 04:38:27;;;;;;;5.25;3.53;;;;;;;10.38;100.00;99157.44;6164432;23;20024;-76
2023/04/01 04:40:57;;;;;;;8.82;3.88;;;;;;;10.25;100.00;99160.38;6165613;23;20063;-75
2023/04/01 04:43:22;;;;;;;7.75;3.42;;;;;;;10.36;100.00;99162.06;6166864;23;20016;-77
2023/04/01 04:45:51;;;;;;;8.50;3.53;;;;;;;10.23;100.00;99158.78;6139531;23;20106;-75
2023/04/01 04:48:19;;;;;;;5.25;3.75;;;;;;;10.37;100.00;99161.91;6165845;23;20028;-76
2023/04/01 04:50:50;;;;;;;6.97;4.13;;;;;;;10.32;100.00;99163.31;6193046;23;20020;-73
2023/04/01 04:53:18;;;;;;;5.97;3.40;;;;;;;10.25;100.00;99162.19;6141219;23;20020;-75
2023/04/01 04:55:49;;;;;;;6.72;3.85;;;;;;;10.20;100.00;99172.38;6192526;23;20403;-75
2023/04/01 04:58:36;;;;;;;7.35;3.67;;;;;;;10.26;100.00;99172.69;6191149;23;20035;-74
2023/04/01 05:01:11;;;;;;;6.07;3.78;;;;;;;10.24;100.00;99165.81;6164368;23;20115;-76
2023/04/01 05:03:38;;;;;;;8.15;4.38;;;;;;;10.24;100.00;99166.69;6164997;23;20089;-76
2023/04/01 05:06:05;;;;;;;7.22;4.32;;;;;;;10.27;100.00;99169.06;6160929;23;20012;-75
2023/04/01 05:08:32;;;;;;;6.90;4.32;;;;;;;10.15;100.00;99172.78;6186039;23;20070;-76
2023/04/01 05:10:58;;;;;;;7.80;4.45;;;;;;;10.24;100.00;99176.47;6157523;23;20044;-76
2023/04/01 05:13:25;;;;;;;9.90;4.88;;;;;;;10.22;100.00;99178.41;6154479;23;20008;-77
2023/04/01 05:15:51;;;;;;;11.20;5.47;;;;;;;10.25;100.00;99175.50;6184088;23;20011;-75
2023/04/01 05:18:16;;;;;;;10.18;5.28;;;;;;;10.19;100.00;99181.31;6158858;23;20778;-75
2023/04/01 05:20:51;;;;;;;12.48;6.07;;;;;;;10.18;100.00;99184.97;6159850;23;20020;-75
2023/04/01 05:23:17;;;;;;;12.68;6.57;;;;;;;10.11;100.00;99184.69;6136232;23;20024;-76
2023/04/01 05:25:45;;;;;;;14.38;7.57;;;;;;;10.17;100.00;99188.63;6161118;23;20507;-76
2023/04/01 05:28:11;;;;;;;15.02;7.72;;;;;;;10.09;100.00;99191.94;6160207;23;20066;-76
2023/04/01 05:30:36;;;;;;;16.20;8.63;;;;;;;10.23;100.00;99196.91;6161170;23;20351;-77
2023/04/01 05:33:22;;;;;;;15.77;8.13;;;;;;;10.06;100.00;99186.91;6186271;23;20027;-76
2023/04/01 05:35:48;;;;;;;15.40;7.70;;;;;;;10.17;100.00;99194.78;6159036;23;20020;-75
2023/04/01 05:38:14;;;;;;;17.70;8.15;;;;;;;10.17;100.00;99196.63;6160821;23;20009;-75
2023/04/01 05:40:42;;;;;;;17.40;8.52;;;;;;;10.17;100.00;99191.28;6135876;23;20672;-75
2023/04/01 05:43:08;;;;;;;15.98;8.45;;;;;;;10.33;100.00;99199.63;6159790;23;20020;-75
2023/04/01 05:45:34;;;;;;;17.85;8.75;;;;;;;10.27;100.00;99198.34;6163187;23;20028;-75
2023/04/01 05:48:01;;;;;;;20.20;9.02;;;;;;;10.31;100.00;99198.94;6189628;23;20020;-77
2023/04/01 05:50:36;;;;;;;16.88;8.07;;;;;;;10.21;100.00;99201.53;6137925;23;20016;-76
2023/04/01 05:53:02;;;;;;;14.23;7.25;;;;;;;10.25;100.00;99207.47;6188458;23;20012;-75
2023/04/01 05:55:28;;;;;;;17.48;8.35;;;;;;;10.18;100.00;99209.78;6188755;23;20059;-75
2023/04/01 05:57:54;;;;;;;18.70;8.50;;;;;;;10.17;100.00;99212.59;6163920;23;20047;-76
2023/04/01 06:00:23;;;;;;;20.60;7.95;;;;;;;10.18;100.00;99206.28;6165111;23;20040;-76
2023/04/01 06:02:51;;;;;;;16.48;8.95;;;;;;;10.35;100.00;99214.50;6163926;23;20373;-75
2023/04/01 06:05:24;;;;;;;19.30;9.10;;;;;;;10.53;100.00;99214.69;6188601;23;20016;-75
2023/04/01 06:07:58;;;;;;;18.80;8.35;;;;;;;10.47;100.00;99217.91;6161913;23;20027;-75
2023/04/01 06:10:41;;;;;;;23.42;9.10;;;;;;;10.46;100.00;99215.38;6189732;23;20356;-75
2023/04/01 06:13:21;;;;;;;22.98;9.73;;;;;;;10.48;100.00;99221.41;6161307;23;20023;-72
2023/04/01 06:16:25;;;;;;;21.80;9.15;;;;;;;10.42;100.00;99236.13;6187993;23;20333;-75
2023/04/01 06:19:07;;;;;;;22.15;9.38;;;;;;;10.54;100.00;99236.84;6105775;23;20458;-75
2023/04/01 06:21:34;;;;;;;20.70;9.30;;;;;;;10.78;100.00;99231.16;6137867;23;20240;-75
2023/04/01 06:24:26;;;;;;;19.48;10.10;;;;;;;10.92;100.00;99240.56;6138205;23;20022;-75
2023/04/01 06:27:09;;;;;;;22.75;10.00;;;;;;;10.97;100.00;99239.16;6163525;23;20017;-76
2023/04/01 06:30:31;;;;;;;23.98;10.20;;;;;;;10.89;100.00;99244.34;6164174;23;20029;-75
2023/04/01 06:33:29;;;;;;;26.88;11.35;;;;;;;10.94;100.00;99243.94;5993323;23;20050;-74
2023/04/01 06:36:05;;;;;;;25.58;9.88;;;;;;;10.80;100.00;99245.19;6015185;23;20025;-75
2023/04/01 06:39:02;;;;;;;25.67;10.57;;;;;;;10.88;100.00;99251.50;6016202;23;20011;-75
2023/04/01 06:41:30;;;;;;;23.20;9.27;;;;;;;11.00;100.00;99259.41;6038896;23;20026;-74
2023/04/01 06:44:18;;;;;;;23.77;9.57;;;;;;;10.91;100.00;99260.22;6040673;23;20108;-75
2023/04/01 06:47:20;;;;;;;26.20;9.43;;;;;;;10.86;100.00;99264.16;6019208;23;20030;-75
2023/04/01 06:50:28;;;;;;;29.42;9.30;;;;;;;10.89;100.00;99271.88;5908437;24;20028;-75
2023/04/01 06:53:37;;;;;;;25.75;9.00;;;;;;;10.80;100.00;99280.69;5928372;24;20024;-75
2023/04/01 06:56:32;;;;;;;29.67;9.82;;;;;;;11.00;100.00;99283.41;5906392;24;20028;-75
2023/04/01 06:59:12;;;;;;;38.97;11.18;;;;;;;11.09;100.00;99279.88;5928294;24;20035;-75
2023/04/01 07:01:42;;;;;;;25.65;9.80;;;;;;;11.03;100.00;99280.44;5904050;24;20477;-74
2023/04/01 07:04:19;;;;;;;20.73;8.38;;;;;;;11.04;100.00;99287.47;5905319;24;20021;-75
2023/04/01 07:07:00;;;;;;;24.55;8.27;;;;;;;10.97;100.00;99295.19;5882508;24;20099;-76
2023/04/01 07:09:32;;;;;;;21.15;8.45;;;;;;;11.07;100.00;99289.88;5965297;23;20262;-75
2023/04/01 07:12:31;;;;;;;17.05;7.20;;;;;;;11.26;100.00;99292.56;5983258;23;20735;-75
2023/04/01 07:15:31;;;;;;;23.67;7.95;;;;;;;11.08;100.00;99294.22;5982306;23;20046;-75
2023/04/01 07:18:12;;;;;;;25.48;8.77;;;;;;;11.30;100.00;99299.31;5936052;23;20019;-74
2023/04/01 07:20:41;;;;;;;20.00;7.57;;;;;;;11.14;100.00;99301.66;5958760;23;20030;-75
2023/04/01 07:23:16;;;;;;;20.58;7.85;;;;;;;11.28;100.00;99311.09;5981931;23;20027;-75
2023/04/01 07:26:20;;;;;;;24.27;8.15;;;;;;;11.63;100.00;99315.84;5977147;23;20826;-75
2023/04/01 07:29:13;;;;;;;20.38;7.82;;;;;;;11.70;100.00;99317.00;6133034;23;20039;-75
2023/04/01 07:32:07;;;;;;;;;;;;;;;11.78;100.00;99321.63;6164088;23;20016;-76
2023/04/01 07:35:03;;;;;;;19.92;7.45;;;;;;;11.75;100.00;99322.75;6160849;23;20223;-75
2023/04/01 07:37:35;;;;;;;17.15;6.35;;;;;;;11.67;100.00;99328.78;6164663;23;20013;-75
2023/04/01 07:40:19;;;;;;;21.70;8.18;;;;;;;11.79;100.00;99340.16;6162180;23;20095;-74
2023/04/01 07:43:16;;;;;;;22.80;7.82;;;;;;;12.00;100.00;99340.03;6138842;23;20020;-76
2023/04/01 07:46:30;;;;;;;22.98;7.93;;;;;;;12.33;100.00;99333.34;6163483;23;20017;-74
2023/04/01 07:49:34;;;;;;;20.83;8.65;;;;;;;11.84;100.00;99343.28;6136676;23;20476;-75
2023/04/01 07:52:16;;;;;;;21.42;8.05;;;;;;;12.04;100.00;99348.59;6142445;23;20013;-75
2023/04/01 07:54:54;;;;;;;22.63;8.65;;;;;;;12.06;100.00;99352.81;6163746;23;20011;-75
2023/04/01 07:57:34;;;;;;;18.65;8.05;;;;;;;12.15;100.00;99354.63;6157317;23;20019;-77
2023/04/01 08:00:16;;;;;;;19.58;8.38;;;;;;;12.22;100.00;99364.75;6163103;23;20064;-77
2023/04/01 08:03:31;;;;;;;19.50;7.23;;;;;;;12.22;100.00;99367.41;6141135;23;20012;-76
2023/04/01 08:06:26;;;;;;;17.98;6.57;;;;;;;12.36;100.00;99370.47;6160970;23;20636;-75
2023/04/01 08:09:09;;;;;;;23.45;8.27;;;;;;;12.47;100.00;99365.94;6188861;23;20038;-77
2023/04/01 08:12:24;;;;;;;17.73;7.45;;;;;;;12.01;100.00;99365.78;6162948;23;20032;-76
2023/04/01 08:15:42;;;;;;;16.02;7.25;;;;;;;12.41;100.00;99370.88;6189665;23;20023;-76
2023/04/01 08:18:32;;;;;;;18.83;8.80;;;;;;;12.22;100.00;99386.97;6013687;23;20014;-75
2023/04/01 08:21:20;;;;;;;18.30;7.60;;;;;;;12.33;100.00;99388.63;6014382;23;20034;-75
2023/04/01 08:23:51;;;;;;;16.73;7.53;;;;;;;12.50;100.00;99385.22;5990545;23;20019;-77
2023/04/01 08:26:37;;;;;;;16.85;7.22;;;;;;;12.55;100.00;99398.13;6014317;23;20019;-76
2023/04/01 08:29:15;;;;;;;13.68;5.95;;;;;;;12.62;100.00;99394.75;5991301;23;20398;-75
2023/04/01 08:32:10;;;;;;;11.68;5.70;;;;;;;12.79;100.00;99392.28;6015208;23;20019;-76
2023/04/01 08:34:40;;;;;;;15.13;6.78;;;;;;;12.74;100.00;99395.38;6039133;23;20023;-75
2023/04/01 08:37:17;;;;;;;15.50;6.68;;;;;;;13.15;100.00;99396.78;6039058;23;20053;-76
2023/04/01 08:39:50;;;;;;;14.82;6.90;;;;;;;13.58;100.00;99397.09;6014469;23;20350;-75
2023/04/01 08:42:51;;;;;;;12.67;6.07;;;;;;;13.17;100.00;99399.28;6038074;23;20026;-77
2023/04/01 08:45:42;;;;;;;14.73;6.15;;;;;;;13.52;100.00;99401.22;6015323;23;20033;-76
2023/04/01 08:48:19;;;;;;;10.65;5.75;;;;;;;13.44;100.00;99411.84;6037061;23;20019;-76
2023/04/01 08:51:23;;;;;;;10.85;5.82;;;;;;;13.42;100.00;99411.16;6012953;23;20274;-76
2023/04/01 08:53:51;;;;;;;13.25;5.82;;;;;;;13.15;100.00;99410.16;6014039;23;20042;-76
2023/04/01 08:56:57;;;;;;;8.05;5.00;;;;;;;13.08;100.00;99416.25;6157480;23;20654;-75
2023/04/01 09:00:01;;;;;;;12.20;5.53;;;;;;;13.23;100.00;99424.66;6161259;23;20009;-76
2023/04/01 09:02:49;;;;;;;8.57;4.63;;;;;;;13.01;100.00;99428.53;6129713;23;20054;-77
2023/04/01 09:05:38;;;;;;;10.07;4.47;;;;;;;13.20;100.00;99431.97;6187002;23;20024;-77
2023/04/01 09:08:23;;;;;;;10.15;4.95;;;;;;;13.47;100.00;99432.97;6160552;23;20024;-76
2023/04/01 09:11:28;;;;;;;8.38;4.25;;;;;;;13.50;100.00;99438.00;6159687;23;20020;-74
2023/04/01 09:14:41;;;;;;;6.93;3.55;;;;;;;13.27;100.00;99444.78;6186242;23;20044;-75
2023/04/01 09:17:47;;;;;;;4.78;2.58;;;;;;;13.49;100.00;99447.03;6160250;23;20016;-75
2023/04/01 09:20:59;;;;;;;5.25;2.60;;;;;;;13.18;100.00;99450.00;6162591;23;20013;-76
2023/04/01 09:23:47;;;;;;;4.32;2.20;;;;;;;13.01;100.00;99461.50;6166207;23;20020;-77
2023/04/01 09:26:43;;;;;;;6.82;3.03;;;;;;;12.79;100.00;99465.34;6167026;23;20321;-77
2023/04/01 09:29:34;;;;;;;6.95;3.75;;;;;;;12.77;100.00;99470.00;6167088;23;20005;-77
2023/04/01 09:32:15;;;;;;;7.22;4.18;;;;;;;13.27;100.00;99466.19;6139340;23;20031;-77
2023/04/01 09:35:24;;;;;;;7.75;3.45;;;;;;;13.16;100.00;99470.72;6163735;23;20016;-76
2023/04/01 09:38:18;;;;;;;8.18;4.20;;;;;;;13.60;100.00;99467.41;6193275;23;20887;-75
2023/04/01 09:40:55;;;;;;;10.38;4.55;;;;;;;13.79;100.00;99472.66;6162979;23;20120;-77
2023/04/01 09:44:23;;;;;;;7.70;3.47;;;;;;;13.59;100.00;99473.75;6136281;23;20035;-75
2023/04/01 09:47:24;;;;;;;8.52;3.65;;;;;;;13.69;100.00;99480.75;6192967;23;20621;-75
2023/04/01 09:49:59;;;;;;;5.05;3.03;;;;;;;13.59;100.00;99489.84;6166073;23;20032;-76
2023/04/01 09:52:43;;;;;;;6.28;2.70;;;;;;;13.54;100.00;99492.13;6191661;23;20313;-76
2023/04/01 09:55:32;;;;;;;4.68;2.72;;;;;;;13.56;100.00;99482.97;6189798;23;20265;-76
2023/04/01 09:58:19;;;;;;;3.67;2.03;;;;;;;13.66;100.00;99491.78;6163106;23;20016;-76
2023/04/01 10:01:40;;;;;;;2.92;1.40;;;;;;;13.14;100.00;99501.28;6167309;23;20301;-76
2023/04/01 10:05:05;;;;;;;2.05;1.52;;;;;;;13.84;100.00;99501.66;6161895;23;20013;-75
2023/04/01 10:07:36;;;;;;;0.90;0.80;;;;;;;13.48;100.00;99502.44;6185264;23;20017;-75
2023/04/01 10:10:47;;;;;;;1.63;0.93;;;;;;;13.95;100.00;99507.63;6159640;23;20017;-75
2023/04/01 10:13:49;;;;;;;0.60;0.60;;;;;;;14.52;100.00;99501.19;6069905;23;20016;-75
2023/04/01 10:16:39;;;;;;;1.98;0.40;;;;;;;14.81;100.00;99504.41;6160807;23;20024;-75
2023/04/01 10:19:37;;;;;;;0.40;0.40;;;;;;;14.42;100.00;99506.59;6159305;23;20016;-75
2023/04/01 10:22:33;;;;;;;0.47;0.40;;;;;;;14.17;100.00;99514.41;6158774;23;20016;-74
2023/04/01 10:25:05;;;;;;;1.30;0.80;;;;;;;13.94;100.00;99519.34;6158809;23;20017;-76
2023/04/01 10:27:37;;;;;;;0.95;0.95;;;;;;;13.37;100.00;99521.38;6156177;23;20024;-75
2023/04/01 10:30:36;;;;;;;2.90;1.52;;;;;;;13.30;100.00;99538.16;6185600;23;20040;-75
2023/04/01 10:33:27;;;;;;;0.90;0.60;;;;;;;12.46;100.00;99543.41;6154472;23;20048;-73
2023/04/01 10:36:20;;;;;;;1.77;0.77;;;;;;;12.30;100.00;99542.13;6182938;23;20016;-75
2023/04/01 10:39:08;;;;;;;1.42;1.10;;;;;;;12.18;100.00;99549.41;6158464;23;20021;-75
2023/04/01 10:41:59;;;;;;;1.63;0.90;;;;;;;12.37;100.00;99558.44;6156746;23;20020;-76
2023/04/01 10:45:06;;;;;;;1.38;1.05;;;;;;;12.64;100.00;99552.38;6163821;23;20051;-75
2023/04/01 10:48:15;;;;;;;2.90;1.23;;;;;;;12.48;100.00;99566.31;6157512;23;20050;-75
2023/04/01 10:51:10;;;;;;;2.60;1.33;;;;;;;12.52;100.00;99566.88;6148908;23;20585;-75
2023/04/01 10:54:35;;;;;;;2.47;1.63;;;;;;;12.81;100.00;99567.72;6158668;23;20015;-76
2023/04/01 10:58:09;;;;;;;3.45;2.00;;;;;;;12.78;100.00;99567.16;5977877;23;20462;-75
2023/04/01 11:01:13;;;;;;;4.15;2.83;;;;;;;12.79;100.00;99567.00;5893794;24;20760;-76
2023/04/01 11:04:05;;;;;;;7.28;3.63;;;;;;;12.93;100.00;99571.06;5788657;24;20115;-75
2023/04/01 11:07:24;;;;;;;5.03;3.33;;;;;;;12.84;100.00;99579.94;5789603;24;20051;-75
2023/04/01 11:10:40;;;;;;;6.47;3.42;;;;;;;12.68;100.00;99573.34;5783706;24;20077;-74
2023/04/01 11:13:27;;;;;;;7.68;3.58;;;;;;;12.38;100.00;99579.69;5766724;24;20746;-75
2023/04/01 11:15:54;;;;;;;5.53;3.05;;;;;;;12.57;100.00;99592.22;5767728;24;20023;-75
2023/04/01 11:19:00;;;;;;;6.45;3.40;;;;;;;12.83;100.00;99591.66;5788074;24;20018;-76
2023/04/01 11:21:37;;;;;;;8.20;4.15;;;;;;;12.72;100.00;99602.50;5787440;24;20015;-76
2023/04/01 11:24:09;;;;;;;8.05;4.85;;;;;;;12.80;100.00;99594.59;5785999;24;20121;-75
2023/04/01 11:26:56;;;;;;;7.07;4.35;;;;;;;13.06;100.00;99600.22;5767210;24;20022;-77
2023/04/01 11:29:57;;;;;;;9.75;5.03;;;;;;;12.88;100.00;99608.13;5788795;24;20019;-76
2023/04/01 11:32:46;;;;;;;9.35;4.65;;;;;;;12.91;100.00;99602.50;5818481;24;20196;-76
2023/04/01 11:35:30;;;;;;;8.02;4.75;;;;;;;12.93;100.00;99611.19;5927042;24;20255;-76
2023/04/01 11:37:56;;;;;;;10.60;5.60;;;;;;;13.23;100.00;99612.88;5991133;23;20526;-76
2023/04/01 11:41:09;;;;;;;13.50;5.70;;;;;;;13.04;100.00;99620.91;6086320;23;20020;-76
2023/04/01 11:44:19;;;;;;;10.63;5.80;;;;;;;13.07;100.00;99623.31;6162157;23;20084;-75
2023/04/01 11:47:10;;;;;;;10.52;4.40;;;;;;;12.83;100.00;99626.41;6157986;23;20075;-77
2023/04/01 11:49:42;;;;;;;10.60;5.60;;;;;;;12.80;100.00;99627.56;6132649;23;20399;-75
2023/04/01 11:52:46;;;;;;;16.17;6.50;;;;;;;13.07;100.00;99632.19;6136676;23;20410;-74
2023/04/01 11:55:35;;;;;;;10.40;5.80;;;;;;;13.17;100.00;99641.03;6186454;23;20016;-76
2023/04/01 11:58:26;;;;;;;15.40;6.78;;;;;;;13.46;100.00;99629.47;6159142;23;20286;-75
2023/04/01 12:01:28;;;;;;;11.57;6.10;;;;;;;13.69;100.00;99632.59;6158805;23;20070;-75
2023/04/01 12:04:23;;;;;;;15.30;5.88;;;;;;;13.46;100.00;99642.84;6185760;23;20103;-75
2023/04/01 12:06:55;;;;;;;11.10;5.38;;;;;;;13.29;100.00;99643.56;6159438;23;20016;-75
2023/04/01 12:09:54;;;;;;;10.68;5.60;;;;;;;13.48;100.00;99641.69;6159333;23;20015;-75
2023/04/01 12:12:33;;;;;;;10.25;4.70;;;;;;;13.44;100.00;99645.66;6185927;23;20356;-76
2023/04/01 12:15:32;;;;;;;4.40;3.08;;;;;;;13.35;100.00;99651.03;6185924;23;20023;-75
2023/04/01 12:18:24;;;;;;;3.97;2.17;;;;;;;13.42;100.00;99653.00;6133898;23;20016;-75